sensor_id;sensor_type;location;lat;lon;timestamp;pressure;altitude;pressure_sealevel;temperature;humidity
64453;BME280;50813;52.654;6.766;2023-04-01T00:01:25;99100.0;;;10.88;100.0
64453;BME280;50813;52.654;6.766;2023-04-01T00:03:02;99097.0;;;10.84;100.0
64453;BME280;50813;52.654;6.766;2023-04-01T00:04:38;99097.0;;;10.8;100.0
64453;BME280;50813;52.654;6.766;2023-04-01T00:06:16;99099.0;;;10.91;100.0
64453;BME280;50813;52.654;6.766;2023-04-01T00:09:29;99096.0;;;10.95;100.0
64453;BME280;50813;52.654;6.766;2023-04-01T00:11:05;99091.0;;;10.83;100.0
64453;BME280;50813;52.654;6.766;2023-04-01T00:12:42;99093.0;;;10.93;100.0
64453;BME280;50813;52.654;6.766;2023-04-01T00:15:55;99093.0;;;11.03;100.0
64453;BME280;50813;52.654;6.766;2023-04-01T00:17:32;99093.0;;;11.0;100.0
64453;BME280;50813;52.654;6.766;2023-04-01T00:19:08;99087.0;;;10.93;100.0
64453;BME280;50813;52.654;6.766;2023-04-01T00:22:22;99083.0;;;11.03;100.0
64453;BME280;50813;52.654;6.766;2023-04-01T00:23:59;99084.0;;;10.9;100.0
64453;BME280;50813;52.654;6.766;2023-04-01T00:25:35;99087.0;;;11.05;100.0
64453;BME280;50813;52.654;6.766;2023-04-01T00:27:12;99085.0;;;10.92;100.0
64453;BME280;50813;52.654;6.766;2023-04-01T00:30:25;99082.0;;;10.95;100.0
64453;BME280;50813;52.654;6.766;2023-04-01T00:32:01;99082.0;;;10.9;100.0
64453;BME280;50813;52.654;6.766;2023-04-01T00:33:37;99083.0;;;10.82;100.0
64453;BME280;50813;52.654;6.766;2023-04-01T00:36:52;99084.0;;;11.01;100.0
64453;BME280;50813;52.654;6.766;2023-04-01T00:38:28;99080.0;;;11.02;100.0
64453;BME280;50813;52.654;6.766;2023-04-01T00:40:06;99078.0;;;10.95;100.0
64453;BME280;50813;52.654;6.766;2023-04-01T00:42:02;99080.0;;;10.88;100.0
64453;BME280;50813;52.654;6.766;2023-04-01T00:45:29;99084.0;;;11.01;100.0
64453;BME280;50813;52.654;6.766;2023-04-01T00:47:05;99082.0;;;11.05;100.0
64453;BME280;50813;52.654;6.766;2023-04-01T00:48:44;99082.0;;;11.03;100.0
64453;BME280;50813;52.654;6.766;2023-04-01T00:50:22;99084.0;;;11.03;100.0
64453;BME280;50813;52.654;6.766;2023-04-01T00:53:41;99083.0;;;11.18;100.0
64453;BME280;50813;52.654;6.766;2023-04-01T00:55:22;99081.0;;;11.02;100.0
64453;BME280;50813;52.654;6.766;2023-04-01T00:57:00;99080.0;;;10.91;100.0
64453;BME280;50813;52.654;6.766;2023-04-01T00:58:42;99077.0;;;10.84;100.0
64453;BME280;50813;52.654;6.766;2023-04-01T01:01:56;99078.0;;;10.93;100.0
64453;BME280;50813;52.654;6.766;2023-04-01T01:03:32;99080.0;;;10.83;100.0
64453;BME280;50813;52.654;6.766;2023-04-01T01:05:11;99082.0;;;10.88;100.0
64453;BME280;50813;52.654;6.766;2023-04-01T01:08:47;99080.0;;;10.79;100.0
64453;BME280;50813;52.654;6.766;2023-04-01T01:10:39;99076.0;;;10.69;100.0
64453;BME280;50813;52.654;6.766;2023-04-01T01:12:18;99081.0;;;10.62;100.0
64453;BME280;50813;52.654;6.766;2023-04-01T01:14:00;99082.0;;;10.56;100.0
64453;BME280;50813;52.654;6.766;2023-04-01T01:15:45;99080.0;;;10.89;100.0
64453;BME280;50813;52.654;6.766;2023-04-01T01:17:31;99080.0;;;10.7;100.0
64453;BME280;50813;52.654;6.766;2023-04-01T01:22:03;99078.0;;;10.73;100.0
64453;BME280;50813;52.654;6.766;2023-04-01T01:23:56;99075.0;;;10.68;100.0
64453;BME280;50813;52.654;6.766;2023-04-01T01:26:34;99074.0;;;10.73;100.0
64453;BME280;50813;52.654;6.766;2023-04-01T01:28:44;99073.0;;;10.66;100.0
64453;BME280;50813;52.654;6.766;2023-04-01T01:30:38;99071.0;;;10.87;100.0
64453;BME280;50813;52.654;6.766;2023-04-01T01:32:31;99073.0;;;10.96;100.0
64453;BME280;50813;52.654;6.766;2023-04-01T01:35:20;99075.0;;;10.86;100.0
64453;BME280;50813;52.654;6.766;2023-04-01T01:37:01;99076.0;;;10.94;100.0
64453;BME280;50813;52.654;6.766;2023-04-01T01:38:42;99075.0;;;10.96;100.0
64453;BME280;50813;52.654;6.766;2023-04-01T01:41:57;99075.0;;;10.95;100.0
64453;BME280;50813;52.654;6.766;2023-04-01T01:43:39;99078.0;;;11.0;100.0
64453;BME280;50813;52.654;6.766;2023-04-01T01:45:19;99076.0;;;11.07;100.0
64453;BME280;50813;52.654;6.766;2023-04-01T01:46:58;99080.0;;;11.0;100.0
64453;BME280;50813;52.654;6.766;2023-04-01T01:50:14;99078.0;;;11.03;100.0
64453;BME280;50813;52.654;6.766;2023-04-01T01:51:51;99074.0;;;11.05;100.0
64453;BME280;50813;52.654;6.766;2023-04-01T01:53:28;99080.0;;;11.05;100.0
64453;BME280;50813;52.654;6.766;2023-04-01T01:55:24;99080.0;;;11.07;100.0
64453;BME280;50813;52.654;6.766;2023-04-01T01:58:44;99080.0;;;10.94;100.0
64453;BME280;50813;52.654;6.766;2023-04-01T02:00:22;99080.0;;;11.09;100.0
64453;BME280;50813;52.654;6.766;2023-04-01T02:02:00;99081.0;;;11.09;100.0
64453;BME280;50813;52.654;6.766;2023-04-01T02:03:37;99077.0;;;11.13;100.0
64453;BME280;50813;52.654;6.766;2023-04-01T02:06:58;99086.0;;;11.1;100.0
64453;BME280;50813;52.654;6.766;2023-04-01T02:08:39;99081.0;;;11.12;100.0
64453;BME280;50813;52.654;6.766;2023-04-01T02:10:19;99086.0;;;11.12;100.0
64453;BME280;50813;52.654;6.766;2023-04-01T02:12:01;99082.0;;;11.1;100.0
64453;BME280;50813;52.654;6.766;2023-04-01T02:15:25;99085.0;;;11.18;100.0
64453;BME280;50813;52.654;6.766;2023-04-01T02:17:05;99085.0;;;11.25;100.0
64453;BME280;50813;52.654;6.766;2023-04-01T02:18:45;99084.0;;;11.13;100.0
64453;BME280;50813;52.654;6.766;2023-04-01T02:20:24;99089.0;;;11.11;100.0
64453;BME280;50813;52.654;6.766;2023-04-01T02:23:46;99088.0;;;11.04;100.0
64453;BME280;50813;52.654;6.766;2023-04-01T02:25:25;99089.0;;;11.11;100.0
64453;BME280;50813;52.654;6.766;2023-04-01T02:27:04;99089.0;;;11.1;100.0
64453;BME280;50813;52.654;6.766;2023-04-01T02:28:40;99090.0;;;11.03;100.0
64453;BME280;50813;52.654;6.766;2023-04-01T02:31:56;99089.0;;;11.12;100.0
64453;BME280;50813;52.654;6.766;2023-04-01T02:33:34;99089.0;;;11.14;100.0
64453;BME280;50813;52.654;6.766;2023-04-01T02:35:12;99091.0;;;11.03;100.0
64453;BME280;50813;52.654;6.766;2023-04-01T02:38:26;99094.0;;;11.04;100.0
64453;BME280;50813;52.654;6.766;2023-04-01T02:40:06;99096.0;;;11.22;100.0
64453;BME280;50813;52.654;6.766;2023-04-01T02:41:44;99094.0;;;11.15;100.0
64453;BME280;50813;52.654;6.766;2023-04-01T02:43:21;99098.0;;;11.14;100.0
64453;BME280;50813;52.654;6.766;2023-04-01T02:46:33;99093.0;;;11.02;100.0
64453;BME280;50813;52.654;6.766;2023-04-01T02:48:09;99090.0;;;11.02;100.0
64453;BME280;50813;52.654;6.766;2023-04-01T02:49:45;99092.0;;;10.95;100.0
64453;BME280;50813;52.654;6.766;2023-04-01T02:52:59;99094.0;;;10.96;100.0
64453;BME280;50813;52.654;6.766;2023-04-01T02:54:35;99093.0;;;10.89;100.0
64453;BME280;50813;52.654;6.766;2023-04-01T02:56:11;99096.0;;;10.93;100.0
64453;BME280;50813;52.654;6.766;2023-04-01T02:57:48;99100.0;;;10.91;100.0
64453;BME280;50813;52.654;6.766;2023-04-01T03:01:00;99101.0;;;10.91;100.0
64453;BME280;50813;52.654;6.766;2023-04-01T03:02:37;99100.0;;;10.75;100.0
64453;BME280;50813;52.654;6.766;2023-04-01T03:04:13;99105.0;;;11.05;100.0
64453;BME280;50813;52.654;6.766;2023-04-01T03:07:25;99105.0;;;10.86;100.0
64453;BME280;50813;52.654;6.766;2023-04-01T03:09:02;99109.0;;;10.83;100.0
64453;BME280;50813;52.654;6.766;2023-04-01T03:10:38;99109.0;;;10.98;100.0
64453;BME280;50813;52.654;6.766;2023-04-01T03:13:50;99108.0;;;11.02;100.0
64453;BME280;50813;52.654;6.766;2023-04-01T03:15:26;99114.0;;;11.01;100.0
64453;BME280;50813;52.654;6.766;2023-04-01T03:17:02;99115.0;;;10.96;100.0
64453;BME280;50813;52.654;6.766;2023-04-01T03:20:15;99117.0;;;11.07;100.0
64453;BME280;50813;52.654;6.766;2023-04-01T03:21:52;99120.0;;;11.14;100.0
64453;BME280;50813;52.654;6.766;2023-04-01T03:23:28;99120.0;;;11.09;100.0
64453;BME280;50813;52.654;6.766;2023-04-01T03:25:05;99117.0;;;11.15;100.0
64453;BME280;50813;52.654;6.766;2023-04-01T03:28:18;99122.0;;;11.14;100.0
64453;BME280;50813;52.654;6.766;2023-04-01T03:29:54;99122.0;;;11.23;100.0
64453;BME280;50813;52.654;6.766;2023-04-01T03:31:30;99125.0;;;11.09;100.0
64453;BME280;50813;52.654;6.766;2023-04-01T03:34:43;99125.0;;;11.12;100.0
64453;BME280;50813;52.654;6.766;2023-04-01T03:36:19;99130.0;;;11.18;100.0
64453;BME280;50813;52.654;6.766;2023-04-01T03:37:55;99136.0;;;11.21;100.0
64453;BME280;50813;52.654;6.766;2023-04-01T03:41:11;99136.0;;;11.24;100.0
64453;BME280;50813;52.654;6.766;2023-04-01T03:42:48;99135.0;;;11.23;100.0
64453;BME280;50813;52.654;6.766;2023-04-01T03:44:24;99138.0;;;11.2;100.0
64453;BME280;50813;52.654;6.766;2023-04-01T03:46:01;99141.0;;;11.29;100.0
64453;BME280;50813;52.654;6.766;2023-04-01T03:49:13;99140.0;;;11.12;100.0
64453;BME280;50813;52.654;6.766;2023-04-01T03:50:49;99144.0;;;11.22;100.0
64453;BME280;50813;52.654;6.766;2023-04-01T03:52:25;99142.0;;;11.3;100.0
64453;BME280;50813;52.654;6.766;2023-04-01T03:55:38;99145.0;;;11.17;100.0
64453;BME280;50813;52.654;6.766;2023-04-01T03:57:14;99143.0;;;11.22;100.0
64453;BME280;50813;52.654;6.766;2023-04-01T03:58:51;99146.0;;;11.04;100.0
64453;BME280;50813;52.654;6.766;2023-04-01T04:02:04;99148.0;;;11.2;100.0
64453;BME280;50813;52.654;6.766;2023-04-01T04:03:40;99148.0;;;11.13;100.0
64453;BME280;50813;52.654;6.766;2023-04-01T04:05:16;99153.0;;;11.17;100.0
64453;BME280;50813;52.654;6.766;2023-04-01T04:06:53;99153.0;;;11.06;100.0
64453;BME280;50813;52.654;6.766;2023-04-01T04:10:06;99156.0;;;11.22;100.0
64453;BME280;50813;52.654;6.766;2023-04-01T04:11:43;99156.0;;;11.14;100.0
64453;BME280;50813;52.654;6.766;2023-04-01T04:13:19;99155.0;;;11.12;100.0
64453;BME280;50813;52.654;6.766;2023-04-01T04:16:34;99156.0;;;11.08;100.0
64453;BME280;50813;52.654;6.766;2023-04-01T04:18:11;99158.0;;;11.26;100.0
64453;BME280;50813;52.654;6.766;2023-04-01T04:19:47;99162.0;;;11.29;100.0
64453;BME280;50813;52.654;6.766;2023-04-01T04:23:00;99159.0;;;11.18;100.0
64453;BME280;50813;52.654;6.766;2023-04-01T04:24:37;99163.0;;;11.19;100.0
64453;BME280;50813;52.654;6.766;2023-04-01T04:26:14;99163.0;;;11.24;100.0
64453;BME280;50813;52.654;6.766;2023-04-01T04:27:51;99162.0;;;11.32;100.0
64453;BME280;50813;52.654;6.766;2023-04-01T04:31:03;99168.0;;;11.32;100.0
64453;BME280;50813;52.654;6.766;2023-04-01T04:32:40;99172.0;;;11.15;100.0
64453;BME280;50813;52.654;6.766;2023-04-01T04:34:16;99169.0;;;11.04;100.0
64453;BME280;50813;52.654;6.766;2023-04-01T04:37:31;99174.0;;;11.1;100.0
64453;BME280;50813;52.654;6.766;2023-04-01T04:39:08;99174.0;;;11.11;100.0
64453;BME280;50813;52.654;6.766;2023-04-01T04:40:45;99180.0;;;11.25;100.0
64453;BME280;50813;52.654;6.766;2023-04-01T04:43:57;99177.0;;;11.08;100.0
64453;BME280;50813;52.654;6.766;2023-04-01T04:45:33;99180.0;;;11.26;100.0
64453;BME280;50813;52.654;6.766;2023-04-01T04:47:09;99181.0;;;11.2;100.0
64453;BME280;50813;52.654;6.766;2023-04-01T04:48:46;99183.0;;;11.04;100.0
64453;BME280;50813;52.654;6.766;2023-04-01T04:51:58;99187.0;;;11.24;100.0
64453;BME280;50813;52.654;6.766;2023-04-01T04:53:35;99187.0;;;11.12;100.0
64453;BME280;50813;52.654;6.766;2023-04-01T04:55:12;99193.0;;;11.11;100.0
64453;BME280;50813;52.654;6.766;2023-04-01T04:58:27;99198.0;;;11.09;100.0
64453;BME280;50813;52.654;6.766;2023-04-01T05:00:04;99200.0;;;11.05;100.0
64453;BME280;50813;52.654;6.766;2023-04-01T05:01:41;99199.0;;;11.15;100.0
64453;BME280;50813;52.654;6.766;2023-04-01T05:03:17;99205.0;;;11.05;100.0
64453;BME280;50813;52.654;6.766;2023-04-01T05:06:30;99205.0;;;11.0;100.0
64453;BME280;50813;52.654;6.766;2023-04-01T05:08:06;99203.0;;;11.18;100.0
64453;BME280;50813;52.654;6.766;2023-04-01T05:09:42;99209.0;;;11.06;100.0
64453;BME280;50813;52.654;6.766;2023-04-01T05:12:55;99211.0;;;11.11;100.0
64453;BME280;50813;52.654;6.766;2023-04-01T05:14:31;99209.0;;;11.12;100.0
64453;BME280;50813;52.654;6.766;2023-04-01T05:16:08;99211.0;;;11.14;100.0
64453;BME280;50813;52.654;6.766;2023-04-01T05:19:20;99216.0;;;11.18;100.0
64453;BME280;50813;52.654;6.766;2023-04-01T05:20:56;99215.0;;;11.18;100.0
64453;BME280;50813;52.654;6.766;2023-04-01T05:22:32;99214.0;;;11.27;100.0
64453;BME280;50813;52.654;6.766;2023-04-01T05:25:44;99217.0;;;10.95;100.0
64453;BME280;50813;52.654;6.766;2023-04-01T05:27:20;99222.0;;;11.22;100.0
64453;BME280;50813;52.654;6.766;2023-04-01T05:28:56;99224.0;;;11.22;100.0
64453;BME280;50813;52.654;6.766;2023-04-01T05:30:31;99223.0;;;11.28;100.0
64453;BME280;50813;52.654;6.766;2023-04-01T05:33:43;99226.0;;;11.07;100.0
64453;BME280;50813;52.654;6.766;2023-04-01T05:35:20;99225.0;;;11.15;100.0
64453;BME280;50813;52.654;6.766;2023-04-01T05:36:56;99235.0;;;11.28;100.0
64453;BME280;50813;52.654;6.766;2023-04-01T05:40:09;99234.0;;;11.28;100.0
64453;BME280;50813;52.654;6.766;2023-04-01T05:41:45;99236.0;;;11.3;100.0
64453;BME280;50813;52.654;6.766;2023-04-01T05:43:21;99240.0;;;11.27;100.0
64453;BME280;50813;52.654;6.766;2023-04-01T05:46:33;99242.0;;;11.25;100.0
64453;BME280;50813;52.654;6.766;2023-04-01T05:48:09;99243.0;;;11.32;100.0
64453;BME280;50813;52.654;6.766;2023-04-01T05:49:46;99247.0;;;11.32;100.0
64453;BME280;50813;52.654;6.766;2023-04-01T05:52:59;99249.0;;;11.27;100.0
64453;BME280;50813;52.654;6.766;2023-04-01T05:54:35;99253.0;;;11.25;100.0
64453;BME280;50813;52.654;6.766;2023-04-01T05:56:11;99253.0;;;11.42;100.0
64453;BME280;50813;52.654;6.766;2023-04-01T05:57:47;99256.0;;;11.25;100.0
64453;BME280;50813;52.654;6.766;2023-04-01T06:02:38;99260.0;;;11.36;100.0
64453;BME280;50813;52.654;6.766;2023-04-01T06:04:15;99262.0;;;11.3;100.0
64453;BME280;50813;52.654;6.766;2023-04-01T06:07:28;99266.0;;;11.38;100.0
64453;BME280;50813;52.654;6.766;2023-04-01T06:09:12;99270.0;;;11.47;100.0
64453;BME280;50813;52.654;6.766;2023-04-01T06:10:58;99273.0;;;11.37;100.0
64453;BME280;50813;52.654;6.766;2023-04-01T06:12:45;99276.0;;;11.53;100.0
64453;BME280;50813;52.654;6.766;2023-04-01T06:14:46;99277.0;;;11.49;100.0
64453;BME280;50813;52.654;6.766;2023-04-01T06:18:35;99277.0;;;11.29;100.0
64453;BME280;50813;52.654;6.766;2023-04-01T06:21:12;99286.0;;;11.37;100.0
64453;BME280;50813;52.654;6.766;2023-04-01T06:23:14;99291.0;;;11.46;100.0
64453;BME280;50813;52.654;6.766;2023-04-01T06:25:20;99290.0;;;11.47;100.0
64453;BME280;50813;52.654;6.766;2023-04-01T06:27:16;99296.0;;;11.37;100.0
64453;BME280;50813;52.654;6.766;2023-04-01T06:31:10;99297.0;;;11.34;100.0
64453;BME280;50813;52.654;6.766;2023-04-01T06:33:04;99296.0;;;11.39;100.0
64453;BME280;50813;52.654;6.766;2023-04-01T06:35:52;99302.0;;;11.54;100.0
64453;BME280;50813;52.654;6.766;2023-04-01T06:38:00;99300.0;;;11.27;100.0
64453;BME280;50813;52.654;6.766;2023-04-01T06:41:35;99309.0;;;11.15;100.0
64453;BME280;50813;52.654;6.766;2023-04-01T06:44:16;99308.0;;;11.24;100.0
64453;BME280;50813;52.654;6.766;2023-04-01T06:46:05;99311.0;;;11.36;100.0
64453;BME280;50813;52.654;6.766;2023-04-01T06:49:45;99315.0;;;11.41;100.0
64453;BME280;50813;52.654;6.766;2023-04-01T06:51:35;99314.0;;;11.29;100.0
64453;BME280;50813;52.654;6.766;2023-04-01T06:53:25;99317.0;;;11.38;100.0
64453;BME280;50813;52.654;6.766;2023-04-01T06:55:21;99321.0;;;11.38;100.0
64453;BME280;50813;52.654;6.766;2023-04-01T06:57:05;99321.0;;;11.32;100.0
64453;BME280;50813;52.654;6.766;2023-04-01T06:58:58;99325.0;;;11.34;100.0
64453;BME280;50813;52.654;6.766;2023-04-01T07:00:40;99334.0;;;11.3;100.0
64453;BME280;50813;52.654;6.766;2023-04-01T07:04:09;99331.0;;;11.4;100.0
64453;BME280;50813;52.654;6.766;2023-04-01T07:05:49;99333.0;;;11.4;100.0
64453;BME280;50813;52.654;6.766;2023-04-01T07:07:32;99333.0;;;11.47;100.0
64453;BME280;50813;52.654;6.766;2023-04-01T07:09:14;99339.0;;;11.66;100.0
64453;BME280;50813;52.654;6.766;2023-04-01T07:12:40;99342.0;;;11.67;100.0
64453;BME280;50813;52.654;6.766;2023-04-01T07:14:22;99340.0;;;11.71;100.0
64453;BME280;50813;52.654;6.766;2023-04-01T07:16:11;99344.0;;;11.77;100.0
64453;BME280;50813;52.654;6.766;2023-04-01T07:17:53;99351.0;;;11.83;100.0
64453;BME280;50813;52.654;6.766;2023-04-01T07:19:37;99352.0;;;11.76;100.0
64453;BME280;50813;52.654;6.766;2023-04-01T07:23:04;99355.0;;;11.68;100.0
64453;BME280;50813;52.654;6.766;2023-04-01T07:24:44;99359.0;;;11.77;100.0
64453;BME280;50813;52.654;6.766;2023-04-01T07:26:23;99362.0;;;11.59;100.0
64453;BME280;50813;52.654;6.766;2023-04-01T07:28:02;99368.0;;;11.59;100.0
64453;BME280;50813;52.654;6.766;2023-04-01T07:31:25;99368.0;;;11.65;100.0
64453;BME280;50813;52.654;6.766;2023-04-01T07:33:13;99372.0;;;11.71;100.0
64453;BME280;50813;52.654;6.766;2023-04-01T07:35:04;99374.0;;;11.87;100.0
64453;BME280;50813;52.654;6.766;2023-04-01T07:36:53;99378.0;;;11.81;100.0
64453;BME280;50813;52.654;6.766;2023-04-01T07:38:44;99376.0;;;11.89;100.0
64453;BME280;50813;52.654;6.766;2023-04-01T07:40:31;99380.0;;;11.9;100.0
64453;BME280;50813;52.654;6.766;2023-04-01T07:44:09;99385.0;;;11.95;100.0
64453;BME280;50813;52.654;6.766;2023-04-01T07:45:59;99390.0;;;11.96;100.0
64453;BME280;50813;52.654;6.766;2023-04-01T07:47:49;99392.0;;;11.98;100.0
64453;BME280;50813;52.654;6.766;2023-04-01T07:49:40;99390.0;;;11.9;100.0
64453;BME280;50813;52.654;6.766;2023-04-01T07:51:25;99398.0;;;11.89;100.0
64453;BME280;50813;52.654;6.766;2023-04-01T07:53:11;99398.0;;;11.96;100.0
64453;BME280;50813;52.654;6.766;2023-04-01T07:54:57;99401.0;;;11.98;100.0
64453;BME280;50813;52.654;6.766;2023-04-01T07:58:27;99410.0;;;11.85;100.0
64453;BME280;50813;52.654;6.766;2023-04-01T08:00:16;99410.0;;;11.97;100.0
64453;BME280;50813;52.654;6.766;2023-04-01T08:02:02;99415.0;;;12.0;100.0
64453;BME280;50813;52.654;6.766;2023-04-01T08:04:06;99420.0;;;11.95;100.0
64453;BME280;50813;52.654;6.766;2023-04-01T08:05:53;99423.0;;;12.19;100.0
64453;BME280;50813;52.654;6.766;2023-04-01T08:07:37;99423.0;;;12.08;100.0
64453;BME280;50813;52.654;6.766;2023-04-01T08:11:12;99427.0;;;12.21;100.0
64453;BME280;50813;52.654;6.766;2023-04-01T08:13:02;99428.0;;;12.07;100.0
64453;BME280;50813;52.654;6.766;2023-04-01T08:14:53;99436.0;;;12.18;100.0
64453;BME280;50813;52.654;6.766;2023-04-01T08:16:37;99438.0;;;12.18;100.0
64453;BME280;50813;52.654;6.766;2023-04-01T08:18:25;99441.0;;;12.16;100.0
64453;BME280;50813;52.654;6.766;2023-04-01T08:20:16;99443.0;;;12.31;100.0
64453;BME280;50813;52.654;6.766;2023-04-01T08:23:41;99444.0;;;12.38;100.0
64453;BME280;50813;52.654;6.766;2023-04-01T08:25:24;99449.0;;;12.09;100.0
64453;BME280;50813;52.654;6.766;2023-04-01T08:27:06;99453.0;;;12.13;100.0
64453;BME280;50813;52.654;6.766;2023-04-01T08:28:50;99455.0;;;12.29;100.0
64453;BME280;50813;52.654;6.766;2023-04-01T08:30:35;99457.0;;;12.25;100.0
64453;BME280;50813;52.654;6.766;2023-04-01T08:34:01;99457.0;;;12.14;100.0
64453;BME280;50813;52.654;6.766;2023-04-01T08:35:43;99466.0;;;12.11;100.0
64453;BME280;50813;52.654;6.766;2023-04-01T08:37:28;99470.0;;;12.06;100.0
64453;BME280;50813;52.654;6.766;2023-04-01T08:39:10;99466.0;;;12.18;100.0
64453;BME280;50813;52.654;6.766;2023-04-01T08:44:45;99472.0;;;11.66;100.0
64453;BME280;50813;52.654;6.766;2023-04-01T08:47:46;99480.0;;;11.75;100.0
64453;BME280;50813;52.654;6.766;2023-04-01T08:51:22;99478.0;;;11.58;100.0
64453;BME280;50813;52.654;6.766;2023-04-01T08:54:22;99486.0;;;12.0;100.0
64453;BME280;50813;52.654;6.766;2023-04-01T08:57:36;99489.0;;;11.95;100.0
64453;BME280;50813;52.654;6.766;2023-04-01T08:59:45;99492.0;;;11.99;100.0
64453;BME280;50813;52.654;6.766;2023-04-01T09:01:40;99490.0;;;12.04;100.0
64453;BME280;50813;52.654;6.766;2023-04-01T09:04:49;99499.0;;;12.01;100.0
64453;BME280;50813;52.654;6.766;2023-04-01T09:06:40;99501.0;;;11.89;100.0
64453;BME280;50813;52.654;6.766;2023-04-01T09:08:33;99507.0;;;11.84;100.0
64453;BME280;50813;52.654;6.766;2023-04-01T09:10:24;99503.0;;;11.92;100.0
64453;BME280;50813;52.654;6.766;2023-04-01T09:13:15;99508.0;;;11.96;100.0
64453;BME280;50813;52.654;6.766;2023-04-01T09:15:37;99515.0;;;12.04;100.0
64453;BME280;50813;52.654;6.766;2023-04-01T09:18:51;99517.0;;;11.9;100.0
64453;BME280;50813;52.654;6.766;2023-04-01T09:21:50;99520.0;;;11.79;100.0
64453;BME280;50813;52.654;6.766;2023-04-01T09:23:58;99524.0;;;11.72;100.0
64453;BME280;50813;52.654;6.766;2023-04-01T09:26:16;99526.0;;;11.85;100.0
64453;BME280;50813;52.654;6.766;2023-04-01T09:28:10;99530.0;;;11.97;100.0
64453;BME280;50813;52.654;6.766;2023-04-01T09:30:32;99531.0;;;11.86;100.0
64453;BME280;50813;52.654;6.766;2023-04-01T09:32:42;99534.0;;;11.96;100.0
64453;BME280;50813;52.654;6.766;2023-04-01T09:36:03;99544.0;;;11.75;100.0
64453;BME280;50813;52.654;6.766;2023-04-01T09:37:52;99549.0;;;11.89;100.0
64453;BME280;50813;52.654;6.766;2023-04-01T09:39:35;99550.0;;;11.94;100.0
64453;BME280;50813;52.654;6.766;2023-04-01T09:43:22;99556.0;;;12.0;100.0
64453;BME280;50813;52.654;6.766;2023-04-01T09:45:09;99561.0;;;11.99;100.0
64453;BME280;50813;52.654;6.766;2023-04-01T09:47:01;99561.0;;;12.26;100.0
64453;BME280;50813;52.654;6.766;2023-04-01T09:50:31;99561.0;;;12.25;100.0
64453;BME280;50813;52.654;6.766;2023-04-01T09:52:18;99570.0;;;12.26;100.0
64453;BME280;50813;52.654;6.766;2023-04-01T09:57:18;99571.0;;;12.06;100.0
64453;BME280;50813;52.654;6.766;2023-04-01T09:59:24;99580.0;;;12.09;100.0
64453;BME280;50813;52.654;6.766;2023-04-01T10:01:32;99581.0;;;12.31;100.0
64453;BME280;50813;52.654;6.766;2023-04-01T10:06:20;99587.0;;;12.2;100.0
64453;BME280;50813;52.654;6.766;2023-04-01T10:09:48;99595.0;;;12.26;100.0
64453;BME280;50813;52.654;6.766;2023-04-01T10:13:17;99602.0;;;12.38;100.0
64453;BME280;50813;52.654;6.766;2023-04-01T10:20:46;99608.0;;;12.32;100.0
64453;BME280;50813;52.654;6.766;2023-04-01T10:22:43;99613.0;;;12.17;100.0
64453;BME280;50813;52.654;6.766;2023-04-01T10:26:23;99622.0;;;12.1;100.0
64453;BME280;50813;52.654;6.766;2023-04-01T10:29:35;99623.0;;;12.29;100.0
64453;BME280;50813;52.654;6.766;2023-04-01T10:34:35;99628.0;;;12.13;100.0
64453;BME280;50813;52.654;6.766;2023-04-01T10:39:17;99628.0;;;12.3;100.0
64453;BME280;50813;52.654;6.766;2023-04-01T10:41:57;99633.0;;;12.2;100.0
64453;BME280;50813;52.654;6.766;2023-04-01T10:45:33;99632.0;;;12.18;100.0
64453;BME280;50813;52.654;6.766;2023-04-01T10:49:10;99636.0;;;12.39;100.0
64453;BME280;50813;52.654;6.766;2023-04-01T10:52:12;99637.0;;;12.28;100.0
64453;BME280;50813;52.654;6.766;2023-04-01T10:56:12;99641.0;;;12.37;100.0
64453;BME280;50813;52.654;6.766;2023-04-01T11:00:43;99649.0;;;12.31;100.0
64453;BME280;50813;52.654;6.766;2023-04-01T11:04:49;99651.0;;;12.34;100.0
64453;BME280;50813;52.654;6.766;2023-04-01T11:06:53;99651.0;;;12.34;100.0
64453;BME280;50813;52.654;6.766;2023-04-01T11:07:22;99651.0;;;12.34;100.0
64453;BME280;50813;52.654;6.766;2023-04-01T11:11:09;99658.0;;;11.96;100.0
64453;BME280;50813;52.654;6.766;2023-04-01T11:14:35;99661.0;;;12.17;100.0
64453;BME280;50813;52.654;6.766;2023-04-01T11:17:42;99664.0;;;12.14;100.0
64453;BME280;50813;52.654;6.766;2023-04-01T11:20:00;99665.0;;;12.13;100.0
64453;BME280;50813;52.654;6.766;2023-04-01T11:22:31;99673.0;;;12.27;100.0
64453;BME280;50813;52.654;6.766;2023-04-01T11:23:22;99673.0;;;12.27;100.0
64453;BME280;50813;52.654;6.766;2023-04-01T11:25:43;99674.0;;;12.05;100.0
64453;BME280;50813;52.654;6.766;2023-04-01T11:27:57;99680.0;;;12.22;100.0
64453;BME280;50813;52.654;6.766;2023-04-01T11:30:20;99682.0;;;12.32;100.0
64453;BME280;50813;52.654;6.766;2023-04-01T11:32:11;99686.0;;;12.22;100.0
64453;BME280;50813;52.654;6.766;2023-04-01T11:34:00;99689.0;;;12.07;100.0
64453;BME280;50813;52.654;6.766;2023-04-01T11:36:05;99695.0;;;11.93;100.0
64453;BME280;50813;52.654;6.766;2023-04-01T11:38:14;99695.0;;;11.92;100.0
64453;BME280;50813;52.654;6.766;2023-04-01T11:40:02;99702.0;;;11.95;100.0
64453;BME280;50813;52.654;6.766;2023-04-01T11:41:48;99701.0;;;11.99;100.0
64453;BME280;50813;52.654;6.766;2023-04-01T11:43:34;99702.0;;;12.11;100.0
64453;BME280;50813;52.654;6.766;2023-04-01T11:45:21;99700.0;;;12.12;100.0
64453;BME280;50813;52.654;6.766;2023-04-01T11:47:33;99710.0;;;12.12;100.0
64453;BME280;50813;52.654;6.766;2023-04-01T11:49:33;99710.0;;;12.26;100.0
64453;BME280;50813;52.654;6.766;2023-04-01T11:51:40;99715.0;;;12.29;100.0
64453;BME280;50813;52.654;6.766;2023-04-01T11:54:07;99716.0;;;12.16;100.0
64453;BME280;50813;52.654;6.766;2023-04-01T11:56:07;99720.0;;;12.33;100.0
64453;BME280;50813;52.654;6.766;2023-04-01T11:57:59;99723.0;;;12.35;100.0
64453;BME280;50813;52.654;6.766;2023-04-01T11:59:54;99725.0;;;12.35;100.0
64453;BME280;50813;52.654;6.766;2023-04-01T12:03:50;99733.0;;;12.46;100.0
64453;BME280;50813;52.654;6.766;2023-04-01T12:06:03;99738.0;;;12.46;100.0
64453;BME280;50813;52.654;6.766;2023-04-01T12:09:43;99747.0;;;12.65;100.0
64453;BME280;50813;52.654;6.766;2023-04-01T12:11:31;99751.0;;;12.55;100.0
64453;BME280;50813;52.654;6.766;2023-04-01T12:13:20;99751.0;;;12.27;100.0
64453;BME280;50813;52.654;6.766;2023-04-01T12:15:13;99755.0;;;12.31;100.0